Terminal Aerodrome Forecast
Issued by NWS Sioux Falls, SD

Home | Current Version | Previous Version | Graphics & Text | Print | Product List | Glossary On
Versions: 1 2 3 4 5 6 7 8 9 10 11 12
000
FTUS43 KFSD 170500 RRA
TAFFSD
TAF
KFSD 170545Z 1706/1806 VRB03KT P6SM FEW025
     FM170700 VRB03KT P6SM SCT015
      TEMPO 1710/1714 4SM BR BKN008
     FM171400 15004KT P6SM BKN010
     FM171600 16004KT P6SM SCT020=

USA.gov is the U.S. government's official web portal to all federal, state and local government web resources and services.